Terminal Aerodrome Forecast
Issued by NWS Indianapolis, IN

Home | Current Version | Previous Version | Text Only | Print | Product List | Glossary On
Versions: 1 2 3 4 5 6 7 8 9 10 11 12 13 14 15 16 17 18 19 20 21 22 23 24 25
000
FTUS43 KIND 310800 AAA
TAFIND
TAF AMD
KIND 310805Z 3108/0112 28005KT P6SM SCT050 BKN080
     FM311400 31010G20KT P6SM BKN025 OVC040
      TEMPO 3114/3118 -RA
     FM311900 30017G30KT P6SM VCSH BKN020
     FM010100 33016G22KT P6SM -RASN BKN030
     FM010600 32015KT P6SM FEW040=

USA.gov is the U.S. government's official web portal to all federal, state and local government web resources and services.